Aviation Digital Data Service (ADDS)

Output produced by METARs form (1109 UTC 13 December 2017)
found at http://www.aviationweather.gov/adds/metars/
 
MGGT 121100Z 36010KT 9999 FEW015 10/09 Q1027 A3033
MGGT 130500Z 1306/1406 36014KT 9999 SCT014 TX21/1320Z TN10/1312Z 
     TEMPO 1306/1315 36018KT CAVOK 
     BECMG 1315/1317 02018KT FEW018 
     TEMPO 1321/1403 SCT018 
     BECMG 1401/1403 36012KT SCT016
       
MGPB 121100Z 27004KT CAVOK 18/17Q1019 A3009 BKN090
MGPB 130500Z 1306/1406 00000KT 9999 FEW016 TX26/1320Z TN18/1312Z 
     PROB30 
     TEMPO 1306/1318 27006KT 8000 DZ BKN016 
     BECMG 1315/1317 33008KT SCT018 
     TEMPO 1320/1401 VRB03KT 
     BECMG 1401/1403 00000KT FEW016
       
MGSJ 130500Z 1306/1406 00000KT CAVOK TX32/1320Z TN22/1312Z 
     PROB30 
     TEMPO 1306/1317 36006KT FEW090 
     BECMG 1315/1317 19008KT 8000 NSC 
     TEMPO 1320/1401 24012KT FEW020 
     BECMG 1401/1403 00000KT CAVOK